Lady Duvera — PB2875 — position and weather

sailwx.info

Track history (hours):
 
Tides and Currents Weather Stations Pressure Air Temp Water Temp Dewpoint Dewpoint Depression Visibility Wind Speed Wind Dir Waves Ship Positions

Lady Duvera

Last reported at 2017-Jun-27 09:26 UTC. Time now 2017-Jun-28 08:54 UTC.
Position N 43°31' E 007°06'.

Length 44 m.

MMSI: 244650177.

Date/timePositionNaut miles runAvg speedWind from/ knotsBaromVisibWave heightAir tempDewpointWater temp
2017-Jun-27 09:26N 43°31' E 007°06'4 8.2
2017-Jun-27 09:00N 43°31' E 007°01'2 1.0
2017-Jun-27 07:09N 43°33' E 007°02'0 0.0
2017-Jun-27 07:00N 43°33' E 007°02'0 0.0
2017-Jun-27 06:27N 43°33' E 007°02'0 0.0
2017-Jun-27 06:00N 43°33' E 007°02'0 0.0
2017-Jun-27 05:27N 43°33' E 007°02'0 0.0
2017-Jun-27 04:48N 43°33' E 007°02'0 0.0
2017-Jun-27 04:27N 43°33' E 007°02'0 0.0
2017-Jun-27 04:00N 43°33' E 007°02'0 0.0
2017-Jun-27 03:27N 43°33' E 007°02'0 0.0
2017-Jun-27 03:00N 43°33' E 007°02'0 0.0
2017-Jun-27 02:30N 43°33' E 007°02'0 0.0
2017-Jun-27 01:57N 43°33' E 007°02'0 0.0
2017-Jun-27 01:30N 43°33' E 007°02'0 0.0
2017-Jun-27 01:00N 43°33' E 007°02'0 0.0
2017-Jun-27 00:30N 43°33' E 007°02'0 0.0
2017-Jun-27 00:00N 43°33' E 007°02'0 0.0
2017-Jun-26 23:21N 43°33' E 007°02'0 0.0
2017-Jun-26 23:00N 43°33' E 007°02'0 0.0
2017-Jun-26 22:30N 43°33' E 007°02'0 0.0
2017-Jun-26 14:45N 43°33' E 007°02'2 9.3
2017-Jun-26 14:30N 43°30' E 007°02'  
2017-Jun-22 13:11N 43°28' E 006°58'2 9.6
2017-Jun-22 13:00N 43°30' E 006°59'3 1.6
2017-Jun-22 10:54N 43°33' E 007°01'0 0.0
2017-Jun-22 08:55N 43°33' E 007°01'3 7.4
2017-Jun-22 08:30N 43°30' E 007°03'1 2.3
2017-Jun-22 07:59N 43°31' E 007°03'0 0.0
2017-Jun-22 07:30N 43°31' E 007°03'0 0.0
2017-Jun-22 06:35N 43°31' E 007°03'0 0.0
2017-Jun-22 06:23N 43°31' E 007°03'0 0.0
2017-Jun-22 05:58N 43°31' E 007°03'0 0.0
2017-Jun-22 05:30N 43°31' E 007°03'0 0.0
2017-Jun-22 04:57N 43°31' E 007°03'0 0.0
2017-Jun-22 04:13N 43°31' E 007°03'0 0.0
2017-Jun-22 03:59N 43°31' E 007°03'0 0.0
2017-Jun-22 03:27N 43°31' E 007°03'0 0.0
2017-Jun-22 03:00N 43°31' E 007°03'0 0.0
2017-Jun-22 02:30N 43°31' E 007°03'0 0.0
2017-Jun-22 01:58N 43°31' E 007°03'0 0.0
2017-Jun-22 01:26N 43°31' E 007°03'0 0.0
2017-Jun-22 00:47N 43°31' E 007°03'0 0.0
2017-Jun-22 00:28N 43°31' E 007°03'0 0.0
2017-Jun-22 00:00N 43°31' E 007°03'0 0.0
2017-Jun-21 23:30N 43°31' E 007°03'0 0.0
2017-Jun-21 23:00N 43°31' E 007°03'0 0.0
2017-Jun-21 22:25N 43°31' E 007°03'0 0.0
2017-Jun-21 17:01N 43°31' E 007°03'0 0.2
2017-Jun-21 17:00N 43°31' E 007°03'0 0.1
2017-Jun-21 16:30N 43°31' E 007°03'0 0.0
2017-Jun-21 15:59N 43°31' E 007°03'0 0.0
2017-Jun-21 15:30N 43°31' E 007°03'0 0.0
2017-Jun-21 15:01N 43°31' E 007°03'17 0.8
2017-Jun-20 17:33N 43°42' E 007°20'0 0.0
2017-Jun-20 17:27N 43°42' E 007°20'0 0.0
2017-Jun-20 17:00N 43°42' E 007°20'0 0.0
2017-Jun-20 16:27N 43°42' E 007°20'0 0.0
2017-Jun-20 15:57N 43°42' E 007°20'0 0.0
2017-Jun-20 11:45N 43°42' E 007°20'0 0.0
2017-Jun-20 11:15N 43°42' E 007°20'0 0.0
2017-Jun-20 11:00N 43°42' E 007°20'0 0.2
2017-Jun-20 10:30N 43°42' E 007°20'4 7.6
2017-Jun-20 10:00N 43°39' E 007°18'  
Track history (hours):
 
Tides and Currents Weather Stations Pressure Air Temp Water Temp Dewpoint Dewpoint Depression Visibility Wind Speed Wind Dir Waves Ship Positions

Lady Duvera

Last reported at 2017-Jun-27 09:26 UTC. Time now 2017-Jun-28 08:54 UTC.
Position N 43°31' E 007°06'.

Length 44 m.

MMSI: 244650177.

Date/timePositionNaut miles runAvg speedWind from/ knotsBaromVisibWave heightAir tempDewpointWater temp
2017-Jun-27 09:26N 43°31' E 007°06'4 8.2
2017-Jun-27 09:00N 43°31' E 007°01'2 1.0
2017-Jun-27 07:09N 43°33' E 007°02'0 0.0
2017-Jun-27 07:00N 43°33' E 007°02'0 0.0
2017-Jun-27 06:27N 43°33' E 007°02'0 0.0
2017-Jun-27 06:00N 43°33' E 007°02'0 0.0
2017-Jun-27 05:27N 43°33' E 007°02'0 0.0
2017-Jun-27 04:48N 43°33' E 007°02'0 0.0
2017-Jun-27 04:27N 43°33' E 007°02'0 0.0
2017-Jun-27 04:00N 43°33' E 007°02'0 0.0
2017-Jun-27 03:27N 43°33' E 007°02'0 0.0
2017-Jun-27 03:00N 43°33' E 007°02'0 0.0
2017-Jun-27 02:30N 43°33' E 007°02'0 0.0
2017-Jun-27 01:57N 43°33' E 007°02'0 0.0
2017-Jun-27 01:30N 43°33' E 007°02'0 0.0
2017-Jun-27 01:00N 43°33' E 007°02'0 0.0
2017-Jun-27 00:30N 43°33' E 007°02'0 0.0
2017-Jun-27 00:00N 43°33' E 007°02'0 0.0
2017-Jun-26 23:21N 43°33' E 007°02'0 0.0
2017-Jun-26 23:00N 43°33' E 007°02'0 0.0
2017-Jun-26 22:30N 43°33' E 007°02'0 0.0
2017-Jun-26 14:45N 43°33' E 007°02'2 9.3
2017-Jun-26 14:30N 43°30' E 007°02'  
2017-Jun-22 13:11N 43°28' E 006°58'2 9.6
2017-Jun-22 13:00N 43°30' E 006°59'3 1.6
2017-Jun-22 10:54N 43°33' E 007°01'0 0.0
2017-Jun-22 08:55N 43°33' E 007°01'3 7.4
2017-Jun-22 08:30N 43°30' E 007°03'1 2.3
2017-Jun-22 07:59N 43°31' E 007°03'0 0.0
2017-Jun-22 07:30N 43°31' E 007°03'0 0.0
2017-Jun-22 06:35N 43°31' E 007°03'0 0.0
2017-Jun-22 06:23N 43°31' E 007°03'0 0.0
2017-Jun-22 05:58N 43°31' E 007°03'0 0.0
2017-Jun-22 05:30N 43°31' E 007°03'0 0.0
2017-Jun-22 04:57N 43°31' E 007°03'0 0.0
2017-Jun-22 04:13N 43°31' E 007°03'0 0.0
2017-Jun-22 03:59N 43°31' E 007°03'0 0.0
2017-Jun-22 03:27N 43°31' E 007°03'0 0.0
2017-Jun-22 03:00N 43°31' E 007°03'0 0.0
2017-Jun-22 02:30N 43°31' E 007°03'0 0.0
2017-Jun-22 01:58N 43°31' E 007°03'0 0.0
2017-Jun-22 01:26N 43°31' E 007°03'0 0.0
2017-Jun-22 00:47N 43°31' E 007°03'0 0.0
2017-Jun-22 00:28N 43°31' E 007°03'0 0.0
2017-Jun-22 00:00N 43°31' E 007°03'0 0.0
2017-Jun-21 23:30N 43°31' E 007°03'0 0.0
2017-Jun-21 23:00N 43°31' E 007°03'0 0.0
2017-Jun-21 22:25N 43°31' E 007°03'0 0.0
2017-Jun-21 17:01N 43°31' E 007°03'0 0.2
2017-Jun-21 17:00N 43°31' E 007°03'0 0.1
2017-Jun-21 16:30N 43°31' E 007°03'0 0.0
2017-Jun-21 15:59N 43°31' E 007°03'0 0.0
2017-Jun-21 15:30N 43°31' E 007°03'0 0.0
2017-Jun-21 15:01N 43°31' E 007°03'17 0.8
2017-Jun-20 17:33N 43°42' E 007°20'0 0.0
2017-Jun-20 17:27N 43°42' E 007°20'0 0.0
2017-Jun-20 17:00N 43°42' E 007°20'0 0.0
2017-Jun-20 16:27N 43°42' E 007°20'0 0.0
2017-Jun-20 15:57N 43°42' E 007°20'0 0.0
2017-Jun-20 11:45N 43°42' E 007°20'0 0.0
2017-Jun-20 11:15N 43°42' E 007°20'0 0.0
2017-Jun-20 11:00N 43°42' E 007°20'0 0.2
2017-Jun-20 10:30N 43°42' E 007°20'4 7.6
2017-Jun-20 10:00N 43°39' E 007°18'  

Dump ship's entire track history